Time;durP1;ratioP1;P1;durP2;ratioP2;P2;SDS_P1;SDS_P2;PMS_P1;PMS_P2;Temp;Humidity;BMP_temperature;BMP_pressure;BME280_temperature;BME280_humidity;BME280_pressure;Samples;Min_cycle;Max_cycle;Signal;HPM_P1;HPM_P2
2022/08/26 00:00:21;;;;;;;12.50;8.85;;;;;;;-148.88;65.08;74390.16;4997074;28;20034;-88
2022/08/26 00:02:46;;;;;;;12.25;8.57;;;;;;;-148.88;65.31;74396.25;4996013;28;20030;-85
2022/08/26 00:05:11;;;;;;;15.98;8.98;;;;;;;-148.88;65.40;74400.31;4995509;28;20029;-88
2022/08/26 00:07:37;;;;;;;12.85;9.35;;;;;;;-148.88;65.12;74402.34;4995469;28;20046;-88
2022/08/26 00:10:03;;;;;;;15.93;9.43;;;;;;;-148.88;65.25;74404.38;4997045;28;20109;-87
2022/08/26 00:12:28;;;;;;;17.50;10.00;;;;;;;-148.88;65.58;74410.47;4995408;28;20033;-88
2022/08/26 00:14:54;;;;;;;16.13;9.93;;;;;;;-148.88;65.20;74404.38;4995760;28;20026;-87
2022/08/26 00:17:19;;;;;;;16.63;9.57;;;;;;;-148.88;65.44;74408.44;4995217;28;20021;-87
2022/08/26 00:19:44;;;;;;;16.25;9.07;;;;;;;-148.88;65.20;74404.38;4995312;28;20046;-88
2022/08/26 00:22:09;;;;;;;14.85;10.13;;;;;;;-148.88;65.73;74404.38;4995113;28;20072;-88
2022/08/26 00:24:35;;;;;;;15.48;9.70;;;;;;;-148.88;66.04;74412.47;4995860;28;20029;-88
2022/08/26 00:27:00;;;;;;;16.70;10.02;;;;;;;-148.88;66.16;74410.47;4995078;28;20117;-88
2022/08/26 00:29:25;;;;;;;18.15;9.95;;;;;;;-148.88;66.54;74412.47;4994974;28;20026;-87
2022/08/26 00:31:51;;;;;;;15.95;9.68;;;;;;;-148.88;66.63;74416.53;4994980;28;20018;-88
2022/08/26 00:34:16;;;;;;;17.10;10.75;;;;;;;-148.88;66.46;74426.69;4996139;28;20478;-88
2022/08/26 00:36:42;;;;;;;13.05;9.32;;;;;;;-148.88;66.63;74422.63;4994877;28;20027;-88
2022/08/26 00:39:08;;;;;;;15.90;9.77;;;;;;;-148.88;66.64;74424.66;4996080;28;20030;-87
2022/08/26 00:41:36;;;;;;;15.73;9.60;;;;;;;-148.88;66.38;74420.59;4995504;28;20026;-88
2022/08/26 00:44:01;;;;;;;13.95;9.55;;;;;;;-148.88;66.56;74422.63;4996031;28;20033;-88
2022/08/26 00:46:38;;;;;;;14.45;9.77;;;;;;;-148.88;66.63;74418.56;4994756;28;20022;-88
2022/08/26 00:49:11;;;;;;;14.98;10.18;;;;;;;-148.88;66.69;74416.53;4994779;28;20109;-87
2022/08/26 00:51:44;;;;;;;13.40;10.13;;;;;;;-148.88;67.06;74424.66;4994715;28;20023;-88
2022/08/26 00:54:10;;;;;;;14.82;10.23;;;;;;;-148.88;66.93;74424.66;4994677;28;20109;-87
2022/08/26 00:56:44;;;;;;;15.65;10.30;;;;;;;-148.88;67.17;74426.69;4994417;28;20026;-87
2022/08/26 00:59:11;;;;;;;13.48;9.88;;;;;;;-148.88;67.16;74430.75;4994599;28;20026;-88
2022/08/26 01:01:40;;;;;;;17.65;10.52;;;;;;;-148.88;67.18;74426.69;4994308;28;20030;-88
2022/08/26 01:04:05;;;;;;;15.57;10.85;;;;;;;-148.88;67.63;74444.97;4994439;28;20022;-88
2022/08/26 01:06:30;;;;;;;18.20;11.10;;;;;;;-148.88;67.84;74451.06;4994586;28;20176;-87
2022/08/26 01:08:56;;;;;;;17.45;10.82;;;;;;;-148.88;68.27;74449.03;4994463;28;20384;-88
2022/08/26 01:11:22;;;;;;;16.15;10.70;;;;;;;-148.88;68.36;74451.06;4994326;28;20029;-87
2022/08/26 01:13:52;;;;;;;14.32;11.20;;;;;;;-148.88;68.41;74449.03;4995280;28;20080;-87
2022/08/26 01:16:17;;;;;;;16.52;11.68;;;;;;;-148.88;68.68;74451.06;4994287;28;20034;-87
2022/08/26 01:18:44;;;;;;;15.68;11.70;;;;;;;-148.88;68.86;74453.09;4994234;28;20026;-88
2022/08/26 01:21:20;;;;;;;18.08;11.55;;;;;;;-148.88;69.06;74465.28;4994382;28;20122;-88
2022/08/26 01:23:49;;;;;;;19.52;11.73;;;;;;;-148.88;69.42;74465.28;4994133;28;20560;-88
2022/08/26 01:26:20;;;;;;;21.60;11.77;;;;;;;-148.88;69.71;74461.22;4994083;28;20089;-88
2022/08/26 01:28:47;;;;;;;19.58;11.27;;;;;;;-148.88;69.62;74467.31;4994003;28;20096;-87
2022/08/26 01:31:17;;;;;;;16.42;10.10;;;;;;;-148.88;69.78;74461.22;4994014;28;20114;-88
2022/08/26 01:33:51;;;;;;;15.75;9.88;;;;;;;-148.88;69.65;74457.16;4993830;28;20026;-86
2022/08/26 01:36:17;;;;;;;16.15;10.60;;;;;;;-148.88;70.21;74469.34;4993966;28;20074;-88
2022/08/26 01:38:43;;;;;;;15.70;10.55;;;;;;;-148.88;70.03;74465.28;4993799;28;20018;-87
2022/08/26 01:41:12;;;;;;;18.63;10.30;;;;;;;-148.88;70.18;74473.41;4994088;28;20034;-87
2022/08/26 01:43:39;;;;;;;17.75;10.73;;;;;;;-148.88;70.46;74473.41;4993745;28;20022;-88
2022/08/26 01:46:05;;;;;;;15.93;10.73;;;;;;;-148.88;70.25;74469.34;4994873;28;20030;-88
2022/08/26 01:48:33;;;;;;;17.98;11.07;;;;;;;-148.88;70.45;74471.38;4993605;28;20077;-88
2022/08/26 01:51:02;;;;;;;16.13;11.27;;;;;;;-148.88;70.39;74475.44;4993463;28;20500;-88
2022/08/26 01:53:27;;;;;;;14.63;10.70;;;;;;;-148.88;70.61;74481.53;4993504;28;20404;-88
2022/08/26 01:55:57;;;;;;;21.25;12.57;;;;;;;-148.88;71.05;74475.44;4993324;28;20022;-87
2022/08/26 01:58:35;;;;;;;20.48;11.80;;;;;;;-148.88;70.94;74477.47;4993380;28;20118;-87
2022/08/26 02:01:01;;;;;;;17.17;12.35;;;;;;;-148.88;71.07;74481.53;4993763;28;20061;-89
2022/08/26 02:03:27;;;;;;;17.38;11.82;;;;;;;-148.88;71.30;74481.53;4993402;28;20374;-87
2022/08/26 02:06:04;;;;;;;21.48;11.32;;;;;;;-148.88;71.48;74485.59;4993282;28;20521;-87
2022/08/26 02:08:42;;;;;;;17.80;11.90;;;;;;;-148.88;71.36;74485.59;4993798;28;20065;-87
2022/08/26 02:11:07;;;;;;;17.25;11.43;;;;;;;-148.88;71.62;74493.72;5005236;23;20046;-75
2022/08/26 02:13:38;;;;;;;21.67;12.40;;;;;;;-148.88;71.98;74497.78;4993741;28;20042;-75
2022/08/26 02:16:04;;;;;;;17.90;12.45;;;;;;;-148.88;72.01;74501.81;4994305;28;20038;-75
2022/08/26 02:18:33;;;;;;;16.33;11.73;;;;;;;-148.88;72.63;74497.78;4993762;28;20496;-75
2022/08/26 02:20:59;;;;;;;16.05;11.25;;;;;;;-148.88;72.18;74497.78;4992499;28;20022;-75
2022/08/26 02:23:25;;;;;;;18.02;11.98;;;;;;;-148.88;72.16;74497.78;4993802;28;20049;-75
2022/08/26 02:25:56;;;;;;;18.58;11.80;;;;;;;-148.88;72.57;74505.88;4993717;28;20026;-75
2022/08/26 02:28:23;;;;;;;18.10;11.70;;;;;;;-148.88;72.72;74503.84;4992162;28;20018;-75
2022/08/26 02:30:48;;;;;;;23.80;12.05;;;;;;;-148.88;72.52;74505.88;4993449;28;20033;-75
2022/08/26 02:33:14;;;;;;;17.77;11.13;;;;;;;-148.88;72.54;74505.88;4993321;28;20022;-75
2022/08/26 02:35:39;;;;;;;19.52;11.93;;;;;;;-148.88;72.46;74501.81;4993683;28;20066;-75
2022/08/26 02:38:07;;;;;;;16.42;12.32;;;;;;;-148.88;72.57;74499.81;4993298;28;20477;-75
2022/08/26 02:40:35;;;;;;;20.35;12.38;;;;;;;-148.88;72.94;74503.84;4992057;28;20022;-75
2022/08/26 02:43:00;;;;;;;19.58;12.98;;;;;;;-148.88;72.99;74505.88;4993337;28;20035;-75
2022/08/26 02:45:27;;;;;;;17.92;12.90;;;;;;;-148.88;73.40;74505.88;4993806;28;20037;-75
2022/08/26 02:47:55;;;;;;;24.65;11.73;;;;;;;-148.88;73.56;74507.91;4993416;28;20026;-75
2022/08/26 02:50:21;;;;;;;22.20;12.35;;;;;;;-148.88;73.43;74509.94;4993353;28;20018;-75
2022/08/26 02:52:47;;;;;;;20.15;12.10;;;;;;;-148.88;73.59;74511.97;4993320;28;20165;-75
2022/08/26 02:55:13;;;;;;;18.25;11.20;;;;;;;-148.88;73.84;74514.00;4992336;28;20415;-75
2022/08/26 02:57:39;;;;;;;22.88;12.50;;;;;;;-148.88;73.99;74522.13;4993134;28;20101;-75
2022/08/26 03:00:07;;;;;;;16.55;12.20;;;;;;;-148.88;74.08;74516.03;4993299;28;20026;-76
2022/08/26 03:02:33;;;;;;;17.92;12.40;;;;;;;-148.88;73.96;74518.06;4993243;28;20030;-75
2022/08/26 03:04:58;;;;;;;19.98;12.38;;;;;;;-148.88;73.71;74505.88;4993496;28;20034;-75
2022/08/26 03:07:24;;;;;;;18.40;12.30;;;;;;;-148.88;74.05;74507.91;4993079;28;20030;-76
2022/08/26 03:09:49;;;;;;;22.77;12.50;;;;;;;-148.88;74.19;74501.81;4992818;28;20065;-75
2022/08/26 03:12:14;;;;;;;17.17;12.10;;;;;;;-148.88;74.15;74501.81;4992983;28;20022;-75
2022/08/26 03:14:40;;;;;;;16.70;11.93;;;;;;;-148.88;74.29;74509.94;4992960;28;20030;-77
2022/08/26 03:17:05;;;;;;;18.88;11.65;;;;;;;-148.88;74.55;74514.00;4992762;28;20071;-75
2022/08/26 03:19:30;;;;;;;17.52;11.00;;;;;;;-148.88;74.63;74505.88;4991407;28;20030;-75
2022/08/26 03:21:57;;;;;;;19.52;12.32;;;;;;;-148.88;74.91;74514.00;4992750;28;20102;-75
2022/08/26 03:24:22;;;;;;;18.33;11.68;;;;;;;-148.88;74.56;74505.88;4994523;28;20037;-75
2022/08/26 03:26:48;;;;;;;21.73;12.43;;;;;;;-148.88;74.51;74507.91;4996761;28;20117;-75
2022/08/26 03:31:57;;;;;;;18.92;11.43;;;;;;;-148.88;74.71;74505.88;4996610;28;20037;-75
2022/08/26 03:34:23;;;;;;;19.17;11.18;;;;;;;-148.88;74.46;74505.88;4996465;28;20022;-75
2022/08/26 03:36:48;;;;;;;17.60;10.75;;;;;;;-148.88;74.61;74505.88;4996792;28;20072;-77
2022/08/26 03:39:14;;;;;;;17.58;11.68;;;;;;;-148.88;75.13;74514.00;4995057;28;20114;-76
2022/08/26 03:41:39;;;;;;;16.50;11.50;;;;;;;-148.88;75.39;74518.06;4996235;28;20030;-76
2022/08/26 03:44:09;;;;;;;21.35;11.82;;;;;;;-148.88;75.65;74514.00;4996143;28;20156;-76
2022/08/26 03:46:35;;;;;;;22.13;12.30;;;;;;;-148.88;75.94;74518.06;4996408;28;20384;-76
2022/08/26 03:49:01;;;;;;;22.73;11.70;;;;;;;-148.88;75.90;74526.19;4996195;28;20551;-76
2022/08/26 03:51:27;;;;;;;19.65;10.98;;;;;;;-148.88;75.95;74526.19;4996387;28;20035;-77
2022/08/26 03:53:52;;;;;;;19.17;10.93;;;;;;;-148.88;75.80;74514.00;4997157;28;20030;-77
2022/08/26 03:56:18;;;;;;;22.65;11.77;;;;;;;-148.88;75.87;74522.13;4996230;28;20410;-77
2022/08/26 03:58:43;;;;;;;20.27;11.63;;;;;;;-148.88;75.72;74522.13;4995957;28;20030;-77
2022/08/26 04:01:10;;;;;;;20.58;11.98;;;;;;;-148.88;76.16;74526.19;4996141;28;20406;-76
2022/08/26 04:06:20;;;;;;;18.50;11.52;;;;;;;-148.88;76.14;74532.28;4995953;28;20068;-77
2022/08/26 04:08:45;;;;;;;17.42;12.52;;;;;;;-148.88;76.20;74534.31;4996064;28;20117;-77
2022/08/26 04:11:19;;;;;;;21.08;12.27;;;;;;;-148.88;76.95;74534.31;4995868;28;20022;-77
2022/08/26 04:13:45;;;;;;;21.73;12.82;;;;;;;-148.88;77.16;74530.25;4996211;28;20018;-77
2022/08/26 04:16:10;;;;;;;21.58;13.30;;;;;;;-148.88;77.68;74540.41;4995796;28;20032;-77
2022/08/26 04:18:36;;;;;;;18.45;13.23;;;;;;;-148.88;77.81;74542.44;4994374;28;20477;-77
2022/08/26 04:21:04;;;;;;;17.70;12.82;;;;;;;-148.88;77.28;74538.38;4996010;28;20034;-77
2022/08/26 04:23:29;;;;;;;18.98;12.57;;;;;;;-148.88;77.46;74556.66;4994527;28;20026;-76
2022/08/26 04:25:54;;;;;;;20.50;13.15;;;;;;;-148.88;78.21;74550.56;4994892;28;20026;-77
2022/08/26 04:28:21;;;;;;;21.52;13.40;;;;;;;-148.88;78.15;74558.69;4995504;28;20050;-77
2022/08/26 04:30:46;;;;;;;20.08;13.13;;;;;;;-148.88;78.26;74556.66;4995518;28;20366;-77
2022/08/26 04:33:12;;;;;;;17.85;12.60;;;;;;;-148.88;78.42;74566.81;4995610;28;20473;-77
2022/08/26 04:35:38;;;;;;;21.25;12.90;;;;;;;-148.88;78.99;74570.88;4996308;28;20085;-79
2022/08/26 04:38:03;;;;;;;18.50;13.10;;;;;;;-148.88;78.99;74568.84;4996308;28;20026;-77
2022/08/26 04:40:28;;;;;;;22.92;13.15;;;;;;;-148.88;79.30;74570.88;4995876;28;20032;-77
2022/08/26 04:42:54;;;;;;;20.02;13.25;;;;;;;-148.88;79.32;74570.88;4995537;28;20026;-77
2022/08/26 04:45:20;;;;;;;20.88;13.85;;;;;;;-148.88;79.44;74574.94;4998064;28;20027;-79
2022/08/26 04:47:45;;;;;;;19.38;13.73;;;;;;;-148.88;79.71;74572.91;4999718;28;20049;-78
2022/08/26 04:50:11;;;;;;;17.73;12.95;;;;;;;-148.88;80.00;74581.03;4999522;28;20094;-78
2022/08/26 04:52:36;;;;;;;21.40;13.82;;;;;;;-148.88;80.33;74591.19;4999069;28;20018;-78
2022/08/26 04:55:02;;;;;;;24.25;14.13;;;;;;;-148.88;80.32;74591.19;4998438;28;20122;-78
2022/08/26 04:57:27;;;;;;;23.00;13.45;;;;;;;-148.88;80.27;74595.25;5000483;28;20030;-79
2022/08/26 04:59:53;;;;;;;22.25;13.38;;;;;;;-148.88;80.38;74587.13;4996598;28;20385;-77
2022/08/26 05:02:18;;;;;;;23.83;12.75;;;;;;;-148.88;79.99;74595.25;4995194;28;20050;-77
2022/08/26 05:04:44;;;;;;;17.42;12.43;;;;;;;-148.88;80.56;74591.19;4995450;28;20457;-77
2022/08/26 05:07:09;;;;;;;21.88;12.75;;;;;;;-148.88;80.35;74593.22;4995022;28;20023;-78
2022/08/26 05:09:37;;;;;;;21.10;12.93;;;;;;;-148.88;80.94;74593.22;4994709;28;20404;-77
2022/08/26 05:12:03;;;;;;;20.15;14.00;;;;;;;-148.88;81.09;74595.25;4994646;28;20054;-76
2022/08/26 05:14:28;;;;;;;23.33;14.05;;;;;;;-148.88;81.33;74595.25;4995134;28;20032;-76
2022/08/26 05:16:54;;;;;;;22.45;13.75;;;;;;;-148.88;81.93;74597.25;4994656;28;20018;-75
2022/08/26 05:19:19;;;;;;;19.88;12.93;;;;;;;-148.88;81.47;74595.25;4994550;28;20026;-75
2022/08/26 05:21:47;;;;;;;20.17;12.90;;;;;;;-148.88;81.98;74587.13;4993026;28;20048;-76
2022/08/26 05:24:12;;;;;;;20.80;13.07;;;;;;;-148.88;81.71;74587.13;4994607;28;20026;-76
2022/08/26 05:26:37;;;;;;;21.88;12.82;;;;;;;-148.88;81.53;74583.06;4995443;28;20397;-76
2022/08/26 05:29:05;;;;;;;18.05;12.05;;;;;;;-148.88;81.59;74587.13;4994266;28;20464;-75
2022/08/26 05:31:32;;;;;;;21.60;12.88;;;;;;;-148.88;81.52;74570.88;4994049;28;20052;-74
2022/08/26 05:33:59;;;;;;;22.42;12.75;;;;;;;-148.88;81.71;74568.84;4994227;28;20038;-74
2022/08/26 05:36:28;;;;;;;17.95;13.10;;;;;;;-148.88;81.97;74566.81;4994347;28;20079;-74
2022/08/26 05:38:54;;;;;;;22.00;13.20;;;;;;;-148.88;81.85;74558.69;4992530;28;20026;-74
2022/08/26 05:41:27;;;;;;;21.27;13.10;;;;;;;-148.88;81.46;74554.63;4994373;28;20121;-74
2022/08/26 05:43:55;;;;;;;21.75;12.85;;;;;;;-148.88;81.06;74542.44;4994845;28;20038;-74
2022/08/26 05:46:20;;;;;;;22.95;12.65;;;;;;;-148.88;81.11;74544.47;4992661;28;20053;-74
2022/08/26 05:48:45;;;;;;;26.02;12.88;;;;;;;-148.88;81.14;74546.50;4994195;28;20022;-74
2022/08/26 05:51:11;;;;;;;19.77;12.32;;;;;;;-148.88;81.14;74542.44;4994347;28;20484;-74
2022/08/26 05:53:39;;;;;;;22.80;12.88;;;;;;;-148.88;81.07;74530.25;4994353;28;20026;-75
2022/08/26 05:56:06;;;;;;;22.25;13.57;;;;;;;-148.88;81.53;74530.25;4993476;28;20489;-74
2022/08/26 05:58:34;;;;;;;25.30;13.35;;;;;;;-148.88;81.40;74526.19;4994357;28;20035;-74
2022/08/26 06:01:09;;;;;;;23.02;13.30;;;;;;;-148.88;81.21;74518.06;4994414;28;20045;-74
2022/08/26 06:03:38;;;;;;;18.35;13.25;;;;;;;-148.88;81.18;74518.06;4994434;28;20031;-74
2022/08/26 06:06:09;;;;;;;20.23;13.63;;;;;;;-148.88;81.42;74497.78;4994004;28;20022;-74
2022/08/26 06:08:35;;;;;;;22.30;13.50;;;;;;;-148.88;81.45;74495.75;4992701;28;20026;-74
2022/08/26 06:11:04;;;;;;;19.70;13.63;;;;;;;-148.88;81.34;74497.78;4993892;28;20030;-74
2022/08/26 06:13:31;;;;;;;20.95;13.70;;;;;;;-148.88;81.46;74493.72;4993953;28;20034;-74
2022/08/26 06:15:57;;;;;;;18.05;12.93;;;;;;;-148.88;80.76;74489.66;4993922;28;20493;-74
2022/08/26 06:18:31;;;;;;;20.23;12.98;;;;;;;-148.88;80.98;74481.53;4993769;28;20030;-74
2022/08/26 06:20:56;;;;;;;;;;;;;;;-148.88;80.55;74475.44;4994317;28;20061;-74
2022/08/26 06:26:06;;;;;;;21.38;14.25;;;;;;;-148.88;79.57;74471.38;4993974;28;20770;-74
2022/08/26 06:28:31;;;;;;;27.88;14.15;;;;;;;-148.88;79.55;74469.34;4993656;28;20059;-74
2022/08/26 06:30:57;;;;;;;27.50;15.05;;;;;;;-148.88;79.17;74469.34;4992411;28;20026;-74
2022/08/26 06:33:24;;;;;;;23.83;15.30;;;;;;;-148.88;78.67;74473.41;4993608;28;20036;-75
2022/08/26 06:35:51;;;;;;;20.45;15.98;;;;;;;-148.88;78.87;74489.66;4993706;28;20112;-74
2022/08/26 06:38:16;;;;;;;21.77;16.95;;;;;;;-148.88;78.80;74489.66;4992105;28;20034;-74
2022/08/26 06:40:48;;;;;;;18.35;15.73;;;;;;;-148.88;79.08;74485.59;4993554;28;20110;-74
2022/08/26 06:43:19;;;;;;;24.35;16.95;;;;;;;-148.88;79.63;74487.63;4993756;28;20041;-74
2022/08/26 06:45:45;;;;;;;22.73;16.48;;;;;;;-148.88;78.99;74487.63;4993717;28;20022;-74
2022/08/26 06:48:13;;;;;;;22.48;17.35;;;;;;;-148.88;79.61;74485.59;4993378;28;20018;-74
2022/08/26 06:50:39;;;;;;;22.33;16.48;;;;;;;-148.88;79.10;74477.47;4992150;28;20033;-74
2022/08/26 06:53:06;;;;;;;23.60;16.05;;;;;;;-148.88;79.00;74483.56;4993413;28;20057;-74
2022/08/26 06:55:32;;;;;;;21.48;16.95;;;;;;;-148.88;78.55;74477.47;4993399;28;20105;-74
2022/08/26 06:57:57;;;;;;;21.20;16.83;;;;;;;-148.88;78.58;74467.31;4993074;28;20105;-75
2022/08/26 07:00:23;;;;;;;24.50;16.63;;;;;;;-148.88;77.98;74465.28;4993272;28;20028;-74
2022/08/26 07:02:48;;;;;;;23.70;17.10;;;;;;;-148.88;77.58;74459.19;4992014;28;20026;-74
2022/08/26 07:05:13;;;;;;;21.73;16.15;;;;;;;-148.88;77.68;74457.16;4993481;28;20370;-74
2022/08/26 07:07:39;;;;;;;25.17;16.58;;;;;;;-148.88;77.35;74457.16;4993273;28;20042;-74
2022/08/26 07:10:07;;;;;;;23.13;15.85;;;;;;;-148.88;77.14;74453.09;4991836;28;20037;-75
2022/08/26 07:12:34;;;;;;;26.63;17.58;;;;;;;-148.88;76.99;74444.97;4992064;28;20085;-75
2022/08/26 07:14:59;;;;;;;29.15;17.35;;;;;;;-148.88;77.68;74444.97;4993319;28;20112;-75
2022/08/26 07:17:25;;;;;;;19.75;15.45;;;;;;;-148.88;77.58;74438.88;4993393;28;20422;-74
2022/08/26 07:19:50;;;;;;;28.38;16.05;;;;;;;-148.88;76.97;74428.72;4993193;28;20022;-75
2022/08/26 07:22:16;;;;;;;23.08;15.75;;;;;;;-148.88;76.77;74424.66;4993445;28;20027;-74
2022/08/26 07:24:41;;;;;;;28.35;16.52;;;;;;;-148.88;76.92;74414.50;4993212;28;20499;-74
2022/08/26 07:27:11;;;;;;;21.80;15.45;;;;;;;-148.88;76.77;74414.50;4993137;28;20031;-74
2022/08/26 07:29:38;;;;;;;24.02;16.30;;;;;;;-148.88;76.55;74408.44;4993412;28;20037;-74
2022/08/26 07:32:05;;;;;;;25.55;16.52;;;;;;;-148.88;76.74;74402.34;4993182;28;20033;-74
2022/08/26 07:34:31;;;;;;;26.33;16.08;;;;;;;-148.88;75.67;74396.25;4993184;28;20040;-74
2022/08/26 07:36:57;;;;;;;23.75;15.80;;;;;;;-148.88;75.13;74394.22;4993136;28;20030;-74
2022/08/26 07:39:22;;;;;;;25.95;15.90;;;;;;;-148.88;74.60;74384.06;4993089;28;20026;-74
2022/08/26 07:41:48;;;;;;;25.15;15.25;;;;;;;-148.88;75.00;74375.94;4993149;28;20030;-74
2022/08/26 07:44:14;;;;;;;26.38;16.88;;;;;;;-148.88;74.50;74363.75;4993040;28;20026;-74
2022/08/26 07:46:40;;;;;;;25.35;15.75;;;;;;;-148.88;74.81;74361.72;4993306;28;20038;-74
2022/08/26 07:49:05;;;;;;;24.10;15.68;;;;;;;-148.88;74.29;74363.75;4992951;28;20062;-75
2022/08/26 07:51:31;;;;;;;26.73;15.50;;;;;;;-148.88;74.49;74355.63;4993015;28;20039;-75
2022/08/26 07:53:56;;;;;;;25.33;15.38;;;;;;;-148.88;74.42;74349.53;4993565;28;20081;-75
2022/08/26 07:56:22;;;;;;;20.98;15.32;;;;;;;-148.88;73.59;74339.38;4993158;28;20026;-75
2022/08/26 07:58:48;;;;;;;21.65;15.15;;;;;;;-148.88;72.80;74333.28;4992859;28;20101;-75
2022/08/26 08:01:14;;;;;;;21.50;14.18;;;;;;;-148.88;71.72;74315.03;4992902;28;20018;-75
2022/08/26 08:03:39;;;;;;;24.63;16.75;;;;;;;-148.88;71.91;74319.09;4992965;28;20057;-75
2022/08/26 08:06:05;;;;;;;30.50;16.33;;;;;;;-148.88;71.90;74302.84;4992915;28;20030;-74
2022/08/26 08:08:31;;;;;;;21.55;14.02;;;;;;;-148.88;71.45;74284.56;4992765;28;20480;-75
2022/08/26 08:10:57;;;;;;;25.73;14.65;;;;;;;-148.88;70.18;74266.28;4994750;28;20049;-74
2022/08/26 08:13:23;;;;;;;24.13;15.10;;;;;;;-148.88;69.58;74266.28;4996382;28;20022;-74
2022/08/26 08:15:48;;;;;;;27.92;15.25;;;;;;;-148.88;69.46;74260.19;4996553;28;20093;-75
2022/08/26 08:18:13;;;;;;;23.10;15.18;;;;;;;-148.88;69.28;74254.09;4996209;28;20035;-74
2022/08/26 08:20:39;;;;;;;29.63;15.20;;;;;;;-148.88;68.08;74250.03;4996260;28;20101;-75
2022/08/26 08:23:04;;;;;;;24.50;14.73;;;;;;;-148.88;68.01;74237.88;4996368;28;20028;-74
2022/08/26 08:25:33;;;;;;;22.13;14.40;;;;;;;-148.88;67.74;74239.91;4996698;28;20041;-76
2022/08/26 08:27:58;;;;;;;21.63;15.27;;;;;;;-148.88;67.58;74239.91;4996035;28;20081;-75
2022/08/26 08:30:24;;;;;;;24.52;15.55;;;;;;;-148.88;67.19;74233.81;4996016;28;20030;-75
2022/08/26 08:32:51;;;;;;;25.50;14.80;;;;;;;-148.88;67.31;74217.56;4996265;28;20030;-75
2022/08/26 08:35:20;;;;;;;23.25;16.90;;;;;;;-148.88;66.05;74193.19;4996133;28;20548;-75
2022/08/26 08:37:46;;;;;;;23.02;17.42;;;;;;;-148.88;65.89;74201.31;4995720;28;20129;-75
2022/08/26 08:40:16;;;;;;;27.92;16.52;;;;;;;-148.88;65.94;74201.31;4994610;28;20113;-75
2022/08/26 08:42:56;;;;;;;24.80;16.63;;;;;;;-148.88;66.45;74205.38;4994848;28;20496;-74
2022/08/26 08:45:38;;;;;;;26.63;16.40;;;;;;;-148.88;66.38;74201.31;4996026;28;20023;-74
2022/08/26 08:48:29;;;;;;;19.95;16.05;;;;;;;-148.88;66.69;74189.13;4995896;28;20022;-74
2022/08/26 08:51:04;;;;;;;28.23;16.63;;;;;;;-148.88;65.33;74168.84;4995591;28;20029;-74
2022/08/26 08:53:40;;;;;;;26.38;15.23;;;;;;;-148.88;64.53;74136.34;4994451;28;20038;-74
2022/08/26 08:56:36;;;;;;;22.52;13.68;;;;;;;-148.88;63.37;74093.72;4994258;28;20105;-75
2022/08/26 08:59:19;;;;;;;26.85;13.32;;;;;;;-148.88;62.32;74083.56;4994062;28;20054;-75
2022/08/26 09:01:50;;;;;;;26.65;13.80;;;;;;;-148.88;63.05;74085.59;4995633;28;20128;-75
2022/08/26 09:04:39;;;;;;;24.67;12.07;;;;;;;-148.88;61.48;74081.53;4995321;28;20026;-75
2022/08/26 09:07:11;;;;;;;21.42;12.88;;;;;;;-148.88;62.10;74077.47;4995593;28;20037;-75
2022/08/26 09:09:41;;;;;;;23.83;14.32;;;;;;;-148.88;61.89;74059.19;4995459;28;20026;-76
2022/08/26 09:12:13;;;;;;;25.77;12.77;;;;;;;-148.88;62.65;74044.97;4993956;28;20098;-75
2022/08/26 09:14:39;;;;;;;24.23;12.98;;;;;;;-148.88;62.72;74032.78;4995249;28;20162;-75
2022/08/26 09:17:40;;;;;;;20.75;13.35;;;;;;;-148.88;61.67;73996.25;4995217;28;20018;-75
2022/08/26 09:20:19;;;;;;;22.17;13.55;;;;;;;-148.88;59.94;73973.91;4989832;28;20038;-75
2022/08/26 09:22:44;;;;;;;22.63;11.77;;;;;;;-148.88;60.81;73955.66;4994468;28;20484;-75
2022/08/26 09:25:13;;;;;;;21.58;12.27;;;;;;;-148.88;59.64;73929.25;4995272;28;20034;-75
2022/08/26 09:27:50;;;;;;;25.30;14.10;;;;;;;-148.88;59.62;73947.53;4994904;28;20033;-75
2022/08/26 09:30:25;;;;;;;21.58;13.25;;;;;;;-148.88;60.65;73969.84;4994994;28;20022;-75
2022/08/26 09:33:05;;;;;;;21.50;13.63;;;;;;;-148.88;60.75;74004.38;4994856;28;20030;-74
2022/08/26 09:35:34;;;;;;;26.92;13.65;;;;;;;-148.88;60.97;73994.22;4994751;28;20030;-75
2022/08/26 09:38:00;;;;;;;22.77;13.77;;;;;;;-148.88;60.44;73986.09;4994630;28;20401;-75
2022/08/26 09:40:34;;;;;;;19.75;13.38;;;;;;;-148.88;60.17;73965.78;4994706;28;20472;-74
2022/08/26 09:43:09;;;;;;;22.23;14.38;;;;;;;-148.88;61.16;73965.78;4994743;28;20030;-75
2022/08/26 09:45:35;;;;;;;24.67;14.18;;;;;;;-148.88;60.49;73921.13;4994682;28;20030;-75
2022/08/26 09:48:01;;;;;;;22.65;13.45;;;;;;;-148.88;59.30;73894.75;4994733;28;20121;-75
2022/08/26 09:50:39;;;;;;;22.75;14.00;;;;;;;-148.88;57.95;73864.28;4994491;28;20026;-75
2022/08/26 09:53:10;;;;;;;21.60;13.73;;;;;;;-148.88;57.28;73868.34;4994819;28;20033;-75
2022/08/26 09:55:38;;;;;;;25.00;14.07;;;;;;;-148.88;57.28;73874.44;4994358;28;20485;-75
2022/08/26 09:58:04;;;;;;;24.77;13.82;;;;;;;-148.88;56.66;73819.63;4994259;28;20496;-75
2022/08/26 10:00:36;;;;;;;23.50;14.98;;;;;;;-148.88;54.96;73791.19;4994306;28;20078;-75
2022/08/26 10:03:05;;;;;;;23.67;13.40;;;;;;;-148.88;55.41;73754.66;4993075;28;20033;-75
2022/08/26 10:05:39;;;;;;;21.60;14.35;;;;;;;-148.88;54.77;73740.44;4994221;28;20292;-75
2022/08/26 10:08:19;;;;;;;24.02;13.38;;;;;;;-148.88;54.23;73703.91;4994130;28;20018;-75
2022/08/26 10:10:45;;;;;;;19.60;13.23;;;;;;;-148.88;54.68;73707.97;4994082;28;20033;-75
2022/08/26 10:13:22;;;;;;;23.30;12.75;;;;;;;-148.88;55.52;73705.94;4994137;28;20034;-75
2022/08/26 10:16:07;;;;;;;20.95;12.07;;;;;;;-148.88;55.68;73750.59;4994358;28;20473;-75
2022/08/26 10:18:40;;;;;;;21.80;12.73;;;;;;;-148.88;55.45;73770.91;4992721;28;20044;-75
2022/08/26 10:21:10;;;;;;;;;;;;;;;-148.88;56.06;73811.50;4994370;28;20030;-75
2022/08/26 10:23:47;;;;;;;20.05;12.27;;;;;;;-148.88;56.39;73787.13;4994302;28;19909;-75
2022/08/26 10:26:31;;;;;;;18.42;12.38;;;;;;;-148.88;57.24;73795.25;4993911;28;20449;-75
2022/08/26 10:29:08;;;;;;;19.55;13.70;;;;;;;-148.88;55.99;73781.03;4994111;28;20085;-75
2022/08/26 10:31:39;;;;;;;20.20;12.13;;;;;;;-148.88;56.72;73829.78;4994187;28;20026;-75
2022/08/26 10:34:05;;;;;;;21.00;13.15;;;;;;;-148.88;57.80;73876.47;4993774;28;20515;-75
2022/08/26 10:36:49;;;;;;;19.05;12.10;;;;;;;-148.88;58.12;73868.34;4993977;28;20034;-75
2022/08/26 10:39:40;;;;;;;20.35;12.75;;;;;;;-148.88;57.57;73831.81;4993840;28;20026;-75
2022/08/26 10:42:12;;;;;;;23.75;15.38;;;;;;;-148.88;55.67;73756.69;4981483;28;20042;-75
2022/08/26 10:44:41;;;;;;;22.70;15.55;;;;;;;-148.88;54.96;73734.34;4994031;28;20110;-75
2022/08/26 10:47:15;;;;;;;21.75;15.23;;;;;;;-148.88;54.07;73718.09;4993812;28;20022;-75
2022/08/26 10:49:43;;;;;;;22.33;14.90;;;;;;;-148.88;53.90;73663.28;4993935;28;20032;-75
2022/08/26 10:52:38;;;;;;;22.30;16.65;;;;;;;-148.88;53.18;73647.06;4992700;28;20060;-75
2022/08/26 10:55:19;;;;;;;26.88;16.13;;;;;;;-148.88;53.17;73653.16;4993730;28;20070;-75
2022/08/26 10:58:05;;;;;;;25.05;16.27;;;;;;;-148.88;53.79;73661.25;4993299;28;20037;-75
2022/08/26 11:03:45;;;;;;;21.13;14.77;;;;;;;-148.88;51.54;73622.69;4993605;28;20041;-75
2022/08/26 11:06:16;;;;;;;21.25;16.33;;;;;;;-148.88;51.37;73614.56;4993360;28;20033;-75
2022/08/26 11:08:51;;;;;;;24.27;15.95;;;;;;;-148.88;51.73;73604.41;4993077;28;20381;-75
2022/08/26 11:11:35;;;;;;;28.33;18.10;;;;;;;-148.88;52.26;73624.72;4991911;28;20497;-75
2022/08/26 11:14:29;;;;;;;21.73;16.17;;;;;;;-148.88;52.50;73608.47;4993226;28;20105;-75
2022/08/26 11:16:57;;;;;;;25.25;18.63;;;;;;;-148.88;54.59;73710.00;4993329;28;20030;-75
2022/08/26 11:19:36;;;;;;;27.65;18.88;;;;;;;-148.88;53.38;73651.13;4993159;28;20105;-75